Latest Weather Observations for Territory Grape Farm

IDD60801

Issued at 6:01 pm CST Friday 20 October 2017 (issued every 30 minutes, with the page automatically refreshed every 10 minutes)

About weather observations | Map of weather stations | Latest weather observations for NT | Other Formats
Station Details ID: 015643 Name: TERRITORY GRAPE FARM Lat: -22.45 Lon: 133.64 Height: 565.6 m
Data from the previous 72 hours. | See also: Recent months at Territory Grape Farm
Date/Time
CST
Temp
°C
App
Temp
°C
Dew
Point
°C
Rel
Hum
%
Delta-T
°C
Wind Press
QNH
hPa
Press
MSL
hPa
Rain since
9am
mm
Dir  Spd
km/h
Gust
km/h
Spd
kts
Gust
kts
20/06:00pm 31.9 27.5 11.7 29 12.1 SE 26 39 14 21 1017.7 1014.5 0.0
20/05:30pm 32.8 28.3 11.3 27 12.8 SE 26 41 14 22 1017.5 1014.3 0.0
20/05:09pm 33.1 28.3 11.6 27 12.9 SE 28 48 15 26 1017.2 1014.0 0.0
20/05:00pm 33.1 28.5 11.0 26 13.2 SE 26 37 14 20 1017.2 1014.0 0.0
20/04:30pm 34.0 30.4 11.8 26 13.4 SE 22 41 12 22 1017.1 1013.9 0.0
20/04:00pm 33.9 29.3 12.3 27 13.2 SE 28 43 15 23 1017.0 1013.8 0.0
20/03:30pm 34.5 30.8 11.6 25 13.8 SSE 22 37 12 20 1017.2 1014.0 0.0
20/03:00pm 34.2 29.7 12.5 27 13.3 SE 28 39 15 21 1017.5 1014.3 0.0
20/02:30pm 34.5 30.4 12.8 27 13.3 SE 26 37 14 20 1017.8 1014.6 0.0
20/02:00pm 34.7 31.0 14.0 28 13.0 SE 26 35 14 19 1018.2 1014.9 0.0
20/01:30pm 34.6 30.9 14.0 29 12.9 ESE 26 44 14 24 1018.6 1015.4 0.0
20/01:14pm 34.2 30.2 14.1 29 12.6 SE 28 48 15 26 1018.6 1015.4 0.0
20/01:00pm 33.7 29.9 13.7 30 12.4 SE 26 41 14 22 1018.9 1015.7 0.0
20/12:30pm 33.3 30.2 14.4 32 11.8 SE 24 35 13 19 1019.5 1016.3 0.0
20/12:00pm 33.1 29.5 14.2 32 11.8 ESE 26 43 14 23 1019.9 1016.8 0.0
20/11:50am 32.3 28.3 14.0 33 11.4 SE 28 48 15 26 1020.2 1017.0 0.0
20/11:30am 31.6 27.4 13.4 33 11.2 ESE 28 41 15 22 1020.4 1017.2 0.0
20/11:00am 31.5 27.4 13.7 33 11.0 SE 28 39 15 21 1020.7 1017.5 0.0
20/10:30am 30.4 25.7 13.2 35 10.5 SE 30 39 16 21 1020.8 1017.6 0.0
20/10:00am 29.0 24.6 12.8 36 9.8 ESE 28 39 15 21 1021.0 1017.8 0.0
20/09:30am 28.5 23.9 12.4 37 9.6 SE 28 41 15 22 1021.0 1017.8 0.0
20/09:00am 28.2 23.0 12.9 38 9.2 SE 32 44 17 24 1021.2 1018.0 0.0
20/08:30am 27.3 22.6 12.1 39 9.0 SE 28 39 15 21 1021.2 1018.0 0.0
20/08:00am 26.5 21.6 12.5 41 8.3 SE 30 41 16 22 1020.8 1017.6 0.0
20/07:30am 26.1 21.2 12.5 42 8.0 SSE 30 43 16 23 1020.3 1017.1 0.0
20/07:00am 26.0 22.5 12.1 42 8.2 SSE 22 35 12 19 1019.9 1016.8 0.0
20/06:30am 25.6 22.9 11.7 42 8.1 SSE 17 24 9 13 1019.7 1016.5 0.0
20/06:00am 25.3 22.9 11.5 42 8.0 SSE 15 28 8 15 1019.1 1015.9 0.0
20/05:30am 24.6 22.7 10.5 41 8.0 SSE 11 15 6 8 1018.7 1015.5 0.0
20/05:00am 24.6 22.5 9.7 39 8.4 S 11 13 6 7 1018.2 1014.9 0.0
20/04:30am 25.9 23.5 10.1 37 9.0 SSE 13 19 7 10 1017.9 1014.7 0.0
20/04:00am 26.1 23.9 9.5 35 9.4 SSE 11 15 6 8 1017.6 1014.4 0.0
20/03:30am 26.6 23.9 9.0 33 9.9 SSE 13 19 7 10 1017.4 1014.2 0.0
20/03:00am 27.2 23.8 9.1 32 10.2 SSE 17 24 9 13 1017.3 1014.1 0.0
20/02:30am 27.1 24.4 9.0 32 10.2 SSE 13 19 7 10 1017.3 1014.1 0.0
20/02:00am 27.3 24.2 8.7 31 10.4 SSE 15 20 8 11 1017.4 1014.2 0.0
20/01:30am 26.4 23.8 7.9 31 10.2 S 11 15 6 8 1017.5 1014.3 0.0
20/01:00am 26.7 23.7 7.7 30 10.4 SSE 13 17 7 9 1017.6 1014.4 0.0
20/12:30am 26.0 23.4 7.6 31 10.0 S 11 15 6 8 1017.7 1014.5 0.0
20/12:00am 25.5 22.9 6.2 29 10.2 S 9 11 5 6 1017.7 1014.5 0.0
 
Date/Time
CST
Temp
°C
App
Temp
°C
Dew
Point
°C
Rel
Hum
%
Delta-T
°C
Wind Press
QNH
hPa
Press
MSL
hPa
Rain since
9am
mm
Dir  Spd
km/h
Gust
km/h
Spd
kts
Gust
kts
19/11:30pm 26.0 23.0 6.1 28 10.6 S 11 13 6 7 1017.8 1014.6 0.0
19/11:00pm 27.1 24.5 6.0 26 11.3 S 9 13 5 7 1017.9 1014.7 0.0
19/10:30pm 27.7 24.8 6.5 26 11.4 SE 11 13 6 7 1017.8 1014.6 0.0
19/10:00pm 29.5 26.2 6.2 23 12.7 SE 13 19 7 10 1017.4 1014.2 0.0
19/09:30pm 28.4 25.2 5.3 23 12.3 SE 11 15 6 8 1017.0 1013.8 0.0
19/09:00pm 29.9 26.3 5.2 21 13.2 SE 13 20 7 11 1016.6 1013.3 0.0
19/08:30pm 30.1 26.4 4.7 20 13.5 SE 13 15 7 8 1015.8 1012.6 0.0
19/08:00pm 30.9 27.1 3.8 18 14.3 SE 13 15 7 8 1015.3 1012.1 0.0
19/07:30pm 31.6 27.9 4.4 18 14.5 SE 13 19 7 10 1014.8 1011.5 0.0
19/07:00pm 32.7 28.5 3.6 16 15.4 SE 15 20 8 11 1014.4 1011.1 0.0
19/06:30pm 34.2 28.1 2.9 14 16.5 SE 24 32 13 17 1013.7 1010.5 0.0
19/06:00pm 35.2 30.0 3.7 14 16.9 ESE 20 30 11 16 1013.1 1009.8 0.0
19/05:30pm 35.7 30.4 3.0 13 17.4 ESE 20 32 11 17 1012.8 1009.5 0.0
19/05:00pm 36.0 31.1 4.3 14 17.3 SE 19 28 10 15 1012.6 1009.3 0.0
19/04:30pm 36.6 32.6 4.8 14 17.5 ESE 15 28 8 15 1012.4 1009.2 0.0
19/04:00pm 36.7 32.5 5.9 15 17.3 SE 17 35 9 19 1012.7 1009.4 0.0
19/03:30pm 36.6 31.6 4.8 14 17.5 E 20 32 11 17 1012.8 1009.5 0.0
19/03:00pm 36.1 30.9 5.4 15 17.0 SE 22 39 12 21 1013.1 1009.8 0.0
19/02:30pm 36.0 29.8 4.3 14 17.3 SSE 26 43 14 23 1013.4 1010.1 0.0
19/02:24pm 36.6 31.6 4.8 14 17.5 SE 20 43 11 23 1013.4 1010.1 0.0
19/02:00pm 35.8 30.9 4.2 14 17.2 SSE 19 35 10 19 1013.8 1010.6 0.0
19/01:30pm 36.1 31.8 5.4 15 17.0 SSE 17 35 9 19 1014.4 1011.1 0.0
19/01:00pm 35.6 31.8 5.9 16 16.6 E 15 26 8 14 1014.9 1011.6 0.0
19/12:30pm 35.8 32.3 7.0 17 16.3 E 15 41 8 22 1015.1 1011.9 0.0
19/12:00pm 35.0 30.5 6.3 17 16.0 E 19 28 10 15 1015.6 1012.4 0.0
19/11:30am 34.4 29.3 5.8 17 15.8 ESE 22 39 12 21 1015.9 1012.7 0.0
19/11:00am 34.2 30.2 6.5 18 15.5 ESE 17 30 9 16 1016.3 1013.0 0.0
19/10:30am 33.1 29.4 6.4 19 14.8 ESE 15 28 8 15 1016.4 1013.1 0.0
19/10:00am 33.2 28.4 5.7 18 15.1 ESE 20 33 11 18 1016.4 1013.1 0.0
19/09:30am 32.0 27.6 8.9 24 13.3 ENE 22 37 12 20 1016.3 1013.0 0.0
19/09:00am 30.9 26.6 9.2 26 12.5 ENE 22 30 12 16 1016.0 1012.8 0.0
19/08:30am 29.6 24.7 8.6 27 11.9 E 24 35 13 19 1015.9 1012.7 0.0
19/08:00am 27.6 23.3 8.0 29 10.9 E 20 30 11 16 1015.7 1012.5 0.0
19/07:30am 25.8 22.0 5.9 28 10.5 ESE 15 20 8 11 1015.6 1012.4 0.0
19/07:00am 23.4 20.2 5.3 31 9.3 ESE 11 17 6 9 1015.2 1012.0 0.0
19/06:30am 19.6 16.6 4.1 36 7.6 SE 9 11 5 6 1014.8 1011.5 0.0
19/06:00am 18.9 15.6 2.7 34 7.7 SE 9 11 5 6 1014.4 1011.1 0.0
19/05:30am 20.1 16.2 3.3 33 8.2 ESE 13 15 7 8 1013.9 1010.7 0.0
19/05:00am 18.6 15.0 2.9 35 7.5 ESE 11 13 6 7 1013.4 1010.1 0.0
19/04:30am 18.1 14.8 2.4 35 7.4 SE 9 11 5 6 1013.2 1009.9 0.0
19/04:00am 18.6 14.9 2.4 34 7.7 SE 11 13 6 7 1013.1 1009.8 0.0
19/03:30am 18.9 15.5 1.9 32 8.0 SE 9 9 5 5 1013.0 1009.7 0.0
19/03:00am 19.8 16.4 1.7 30 8.5 SE 9 11 5 6 1013.0 1009.7 0.0
19/02:30am 21.1 17.9 2.9 30 8.9 SSE 9 13 5 7 1013.1 1009.8 0.0
19/02:00am 19.3 16.3 0.8 29 8.5 SE 6 7 3 4 1013.0 1009.7 0.0
19/01:30am 21.3 17.9 1.6 27 9.4 SE 9 11 5 6 1013.3 1010.0 0.0
19/01:00am 19.7 16.0 0.2 27 8.9 SE 9 11 5 6 1013.4 1010.1 0.0
19/12:30am 19.9 15.7 -0.7 25 9.3 ESE 11 11 6 6 1013.5 1010.3 0.0
19/12:00am 20.8 16.8 -2.3 21 10.1 SE 9 9 5 5 1013.8 1010.6 0.0
 
Date/Time
CST
Temp
°C
App
Temp
°C
Dew
Point
°C
Rel
Hum
%
Delta-T
°C
Wind Press
QNH
hPa
Press
MSL
hPa
Rain since
9am
mm
Dir  Spd
km/h
Gust
km/h
Spd
kts
Gust
kts
18/11:30pm 23.4 19.5 -1.5 19 11.3 SSE 9 13 5 7 1014.1 1010.9 0.0
18/11:00pm 23.8 19.8 -1.9 18 11.6 SSE 9 9 5 5 1014.4 1011.1 0.0
18/10:30pm 23.3 19.6 -3.1 17 11.6 SE 7 11 4 6 1014.2 1011.0 0.0
18/10:00pm 25.4 20.6 -2.2 16 12.6 SE 13 17 7 9 1014.0 1010.8 0.0
18/09:30pm 25.3 20.8 -3.2 15 12.8 SSE 11 13 6 7 1013.5 1010.3 0.0
18/09:00pm 27.5 23.4 -3.3 13 14.0 SSE 9 11 5 6 1013.1 1009.8 0.0
18/08:30pm 29.2 24.3 -3.1 12 14.9 S 13 15 7 8 1012.7 1009.4 0.0
18/08:00pm 29.9 25.0 -3.7 11 15.5 S 13 17 7 9 1012.2 1009.0 0.0
18/07:30pm 31.5 26.0 -5.2 9 16.7 SSE 15 19 8 10 1011.7 1008.4 0.0
18/07:00pm 32.5 27.5 -4.4 9 17.1 SSE 13 19 7 10 1011.2 1007.9 0.0
18/06:30pm 33.8 28.9 -3.5 9 17.7 SSE 13 17 7 9 1010.7 1007.4 0.0
18/06:00pm 35.0 30.2 -2.6 9 18.3 SSE 13 22 7 12 1010.4 1007.2 0.0
18/05:30pm 35.4 29.9 -2.3 9 18.5 SSE 17 26 9 14 1010.1 1006.8 0.0
18/05:00pm 36.2 32.7 -1.7 9 18.8 S 7 20 4 11 1009.9 1006.6 0.0
18/04:30pm 35.8 31.3 -0.5 10 18.4 ESE 13 20 7 11 1009.8 1006.5 0.0
18/04:00pm 36.3 33.0 -0.2 10 18.6 NW 7 11 4 6 1009.9 1006.6 0.0
18/03:30pm 35.8 31.7 -0.5 10 18.4 SSW 11 20 6 11 1010.2 1006.9 0.0
18/03:00pm 36.4 33.1 -0.1 10 18.6 NE 7 13 4 7 1010.3 1007.1 0.0
18/02:30pm 35.2 31.0 -1.0 10 18.1 SSW 11 24 6 13 1010.9 1007.6 0.0
18/02:00pm 34.6 31.3 -0.1 11 17.5 SSW 7 17 4 9 1011.4 1008.1 0.0
18/01:30pm 34.2 31.0 0.8 12 17.1 SE 7 17 4 9 1011.6 1008.3 0.0
18/01:00pm 34.3 30.5 2.0 13 16.8 N 11 20 6 11 1012.2 1009.0 0.0
18/12:30pm 33.9 29.9 2.7 14 16.4 ESE 13 24 7 13 1012.7 1009.4 0.0
18/12:00pm 33.1 30.5 3.0 15 15.8 W 6 17 3 9 1013.1 1009.8 0.0
18/11:30am 32.7 29.6 3.6 16 15.4 ENE 9 22 5 12 1013.6 1010.4 0.0
18/11:00am 32.2 29.2 4.1 17 15.0 NNE 9 17 5 9 1014.1 1010.9 0.0
18/10:30am 31.1 27.5 4.8 19 14.1 NE 13 20 7 11 1014.7 1011.4 0.0
18/10:00am 31.0 26.4 5.4 20 13.8 NE 19 24 10 13 1015.2 1012.0 0.0
18/09:30am 30.2 25.7 6.1 22 13.1 ENE 19 30 10 16 1015.5 1012.3 0.0
18/09:00am 29.2 24.7 6.0 23 12.5 NE 19 28 10 15 1015.6 1012.4 0.0
18/08:30am 28.2 24.0 5.7 24 12.0 ENE 17 24 9 13 1015.5 1012.3 0.0
18/08:00am 26.2 22.4 5.7 27 10.8 E 15 22 8 12 1015.3 1012.1 0.0
18/07:30am 24.3 20.7 5.1 29 9.9 ESE 13 19 7 10 1014.9 1011.6 0.0
18/07:00am 21.6 18.9 5.5 35 8.3 SE 9 15 5 8 1014.7 1011.4 0.0
18/06:30am 17.1 14.3 3.4 40 6.5 SE 7 9 4 5 1014.4 1011.1 0.0
18/06:00am 16.4 13.5 2.4 39 6.5 SSE 7 11 4 6 1014.0 1010.8 0.0
18/05:30am 17.2 13.9 2.4 37 6.9 SSE 9 11 5 6 1013.6 1010.4 0.0
18/05:00am 17.3 14.0 2.5 37 6.9 S 9 11 5 6 1013.2 1009.9 0.0
18/04:30am 16.6 13.8 1.9 37 6.8 S 6 7 3 4 1012.9 1009.6 0.0
18/04:00am 15.7 13.5 1.1 37 6.6 ESE 2 4 1 2 1012.3 1009.1 0.0
18/03:30am 16.7 13.6 1.6 36 6.9 ESE 7 7 4 4 1012.0 1008.8 0.0
18/03:00am 16.7 13.6 1.2 35 7.0 ESE 7 9 4 5 1012.0 1008.8 0.0
18/02:30am 17.8 13.9 0.9 32 7.7 ESE 11 11 6 6 1012.0 1008.8 0.0
18/02:00am 19.2 15.8 1.7 31 8.2 ESE 9 11 5 6 1012.3 1009.1 0.0
18/01:30am 19.0 14.8 1.5 31 8.2 ESE 13 13 7 7 1012.6 1009.3 0.0
18/01:00am 19.1 15.2 1.1 30 8.3 SE 11 11 6 6 1012.9 1009.6 0.0
18/12:30am 19.9 15.5 0.4 27 9.0 SE 13 15 7 8 1013.1 1009.8 0.0
18/12:00am 21.1 17.2 1.4 27 9.3 SE 11 13 6 7 1013.1 1009.8 0.0
 
Date/Time
CST
Temp
°C
App
Temp
°C
Dew
Point
°C
Rel
Hum
%
Delta-T
°C
Wind Press
QNH
hPa
Press
MSL
hPa
Rain since
9am
mm
Dir  Spd
km/h
Gust
km/h
Spd
kts
Gust
kts
17/11:30pm 20.3 16.2 -0.3 25 9.4 ESE 11 13 6 7 1013.1 1009.8 0.0
17/11:00pm 21.8 17.7 -0.2 23 10.1 SE 11 11 6 6 1013.1 1009.8 0.0
17/10:30pm 22.3 18.4 -1.7 20 10.8 SE 9 11 5 6 1013.1 1009.8 0.0
17/10:00pm 25.8 21.8 0.5 19 12.2 SE 11 15 6 8 1012.8 1009.5 0.0
17/09:30pm 22.7 19.5 -0.7 21 10.8 SSE 6 9 3 5 1012.6 1009.3 0.0
17/09:00pm 24.9 22.1 -0.3 19 11.9 SSE 4 7 2 4 1012.0 1008.8 0.0
17/08:30pm 23.8 21.1 0.2 21 11.1 NE 4 4 2 2 1011.5 1008.2 0.0
17/08:00pm 25.5 22.7 -0.5 18 12.2 NE 4 6 2 3 1011.0 1007.7 0.0
17/07:30pm 27.3 23.8 -1.6 15 13.5 ENE 7 9 4 5 1010.7 1007.4 0.0
17/07:00pm 29.1 25.1 -2.1 13 14.7 NE 9 9 5 5 1010.3 1007.1 0.0
17/06:30pm 31.1 27.4 -2.8 11 16.0 ENE 7 9 4 5 1010.0 1006.7 0.0

Other Formats:

Comma delimited format used in spreadsheet applications
http://www.bom.gov.au/fwo/IDD60801/IDD60801.94328.axf

JavaScript Object Notation format (JSON) in row-major order
http://www.bom.gov.au/fwo/IDD60801/IDD60801.94328.json